createdAt,value
2019-03-09T00:00:50.333Z,7.23
2019-03-09T00:01:50.525Z,7.25
2019-03-09T00:02:50.708Z,7.27
2019-03-09T00:03:50.896Z,7.25
2019-03-09T00:04:51.075Z,7.27
2019-03-09T00:05:51.262Z,7.20
2019-03-09T00:06:51.442Z,7.28
2019-03-09T00:07:51.622Z,7.15
2019-03-09T00:08:51.810Z,7.23
2019-03-09T00:09:51.993Z,7.12
2019-03-09T00:10:52.169Z,7.17
2019-03-09T00:11:52.356Z,7.21
2019-03-09T00:12:52.538Z,7.17
2019-03-09T00:13:52.721Z,7.13
2019-03-09T00:14:52.914Z,7.16
2019-03-09T00:15:53.091Z,7.12
2019-03-09T00:16:53.277Z,7.24
2019-03-09T00:17:53.451Z,7.12
2019-03-09T00:18:53.626Z,7.13
2019-03-09T00:19:53.813Z,7.03
2019-03-09T00:20:53.995Z,7.23
2019-03-09T00:21:54.168Z,7.05
2019-03-09T00:22:54.350Z,7.13
2019-03-09T00:23:54.542Z,7.03
2019-03-09T00:24:54.722Z,7.09
2019-03-09T00:25:54.902Z,7.13
2019-03-09T00:26:55.082Z,7.12
2019-03-09T00:27:55.264Z,7.20
2019-03-09T00:28:55.455Z,7.09
2019-03-09T00:29:55.645Z,7.10
2019-03-09T00:30:55.806Z,7.15
2019-03-09T00:31:55.991Z,7.25
2019-03-09T00:32:56.177Z,7.09
2019-03-09T00:33:56.361Z,7.17
2019-03-09T00:34:56.538Z,7.23
2019-03-09T00:35:56.718Z,7.13
2019-03-09T00:36:56.920Z,7.10
2019-03-09T00:37:57.092Z,7.15
2019-03-09T00:38:57.277Z,7.20
2019-03-09T00:39:57.456Z,7.17
2019-03-09T00:40:57.642Z,7.28
2019-03-09T00:41:57.830Z,7.34
2019-03-09T00:42:58.012Z,7.32
2019-03-09T00:43:58.193Z,7.27
2019-03-09T00:44:58.402Z,7.24
2019-03-09T00:45:58.597Z,7.31
2019-03-09T00:46:58.780Z,7.35
2019-03-09T00:47:58.961Z,7.32
2019-03-09T00:48:59.144Z,7.39
2019-03-09T00:49:59.319Z,7.40
2019-03-09T00:50:59.508Z,7.45
2019-03-09T00:51:59.706Z,7.48
2019-03-09T00:52:59.867Z,7.34
2019-03-09T00:54:00.051Z,7.45
2019-03-09T00:55:00.323Z,7.35
2019-03-09T00:56:00.421Z,7.49
2019-03-09T00:57:00.609Z,7.46
2019-03-09T00:58:00.790Z,7.49
2019-03-09T00:59:00.984Z,7.39
2019-03-09T01:00:01.160Z,7.40
2019-03-09T01:01:01.338Z,7.52
2019-03-09T01:02:01.517Z,7.53
2019-03-09T01:03:01.700Z,7.40
2019-03-09T01:04:01.887Z,7.53
2019-03-09T01:05:02.074Z,7.52
2019-03-09T01:06:02.260Z,7.58
2019-03-09T01:07:02.443Z,7.50
2019-03-09T01:08:02.624Z,7.52
2019-03-09T01:09:02.803Z,7.49
2019-03-09T01:10:02.985Z,7.46
2019-03-09T01:11:03.172Z,7.42
2019-03-09T01:12:03.365Z,7.55
2019-03-09T01:13:03.534Z,7.53
2019-03-09T01:14:03.710Z,7.52
2019-03-09T01:15:03.901Z,7.58
2019-03-09T01:16:04.084Z,7.61
2019-03-09T01:17:04.257Z,7.53
2019-03-09T01:18:04.445Z,7.57
2019-03-09T01:19:04.627Z,7.53
2019-03-09T01:20:04.808Z,7.53
2019-03-09T01:21:05.012Z,7.52
2019-03-09T01:22:05.195Z,7.64
2019-03-09T01:23:05.379Z,7.60
2019-03-09T01:24:05.563Z,7.63
2019-03-09T01:25:05.745Z,7.60
2019-03-09T01:26:05.925Z,7.67
2019-03-09T01:27:06.109Z,7.58
2019-03-09T01:28:06.295Z,7.60
2019-03-09T01:29:06.470Z,7.61
2019-03-09T01:30:06.651Z,7.52
2019-03-09T01:31:06.835Z,7.64
2019-03-09T01:32:07.015Z,7.55
2019-03-09T01:33:07.243Z,7.53
2019-03-09T01:34:07.383Z,7.57
2019-03-09T01:35:07.575Z,7.50
2019-03-09T01:36:07.757Z,7.53
2019-03-09T01:37:07.940Z,7.49
2019-03-09T01:38:08.127Z,7.61
2019-03-09T01:39:08.312Z,7.49
2019-03-09T01:40:08.497Z,7.48
2019-03-09T01:41:08.680Z,7.46
2019-03-09T01:42:08.866Z,7.53
2019-03-09T01:43:09.055Z,7.52
2019-03-09T01:44:09.233Z,7.46
2019-03-09T01:45:09.416Z,7.52
2019-03-09T01:46:09.595Z,7.46
2019-03-09T01:47:09.781Z,7.63
2019-03-09T01:48:09.966Z,7.52
2019-03-09T01:49:10.153Z,7.53
2019-03-09T01:50:10.336Z,7.58
2019-03-09T01:51:10.525Z,7.55
2019-03-09T01:52:10.711Z,7.57
2019-03-09T01:53:10.890Z,7.53
2019-03-09T01:54:11.071Z,7.55
2019-03-09T01:55:11.259Z,7.55
2019-03-09T01:56:11.436Z,7.63
2019-03-09T01:57:11.615Z,7.64
2019-03-09T01:58:11.813Z,7.63
2019-03-09T01:59:11.979Z,7.72
2019-03-09T02:00:12.163Z,7.67
2019-03-09T02:01:12.354Z,7.67
2019-03-09T02:02:12.536Z,7.72
2019-03-09T02:03:12.720Z,7.71
2019-03-09T02:04:12.907Z,7.72
2019-03-09T02:05:13.127Z,7.72
2019-03-09T02:06:13.274Z,7.77
2019-03-09T02:07:13.445Z,7.68
2019-03-09T02:08:13.635Z,7.80
2019-03-09T02:09:13.823Z,7.68
2019-03-09T02:10:14.008Z,7.83
2019-03-09T02:11:14.189Z,7.71
2019-03-09T02:12:14.379Z,7.79
2019-03-09T02:13:14.555Z,7.71
2019-03-09T02:14:14.745Z,7.75
2019-03-09T02:15:14.921Z,7.82
2019-03-09T02:16:15.107Z,7.77
2019-03-09T02:17:15.285Z,7.72
2019-03-09T02:18:15.466Z,7.83
2019-03-09T02:19:15.650Z,7.79
2019-03-09T02:20:15.830Z,7.74
2019-03-09T02:21:16.022Z,7.83
2019-03-09T02:22:16.199Z,7.77
2019-03-09T02:23:16.380Z,7.77
2019-03-09T02:24:16.565Z,7.77
2019-03-09T02:25:16.755Z,7.74
2019-03-09T02:26:16.928Z,7.75
2019-03-09T02:27:17.122Z,7.74
2019-03-09T02:28:17.310Z,7.82
2019-03-09T02:29:17.496Z,7.77
2019-03-09T02:30:17.692Z,7.75
2019-03-09T02:31:17.858Z,7.75
2019-03-09T02:32:18.045Z,7.80
2019-03-09T02:33:18.225Z,7.79
2019-03-09T02:34:18.408Z,7.83
2019-03-09T02:35:18.590Z,7.80
2019-03-09T02:36:18.774Z,7.83
2019-03-09T02:37:18.949Z,7.80
2019-03-09T02:38:19.133Z,7.82
2019-03-09T02:39:19.322Z,7.83
2019-03-09T02:40:19.500Z,7.86
2019-03-09T02:41:19.678Z,7.72
2019-03-09T02:42:19.866Z,7.87
2019-03-09T02:43:20.098Z,7.87
2019-03-09T02:44:20.227Z,7.89
2019-03-09T02:45:20.400Z,7.92
2019-03-09T02:46:20.589Z,7.89
2019-03-09T02:47:20.782Z,7.87
2019-03-09T02:48:20.967Z,7.89
2019-03-09T02:49:21.158Z,7.90
2019-03-09T02:50:21.332Z,7.93
2019-03-09T02:51:21.526Z,7.93
2019-03-09T02:52:21.706Z,7.95
2019-03-09T02:53:21.892Z,7.95
2019-03-09T02:54:22.068Z,8.00
2019-03-09T02:55:22.249Z,7.97
2019-03-09T02:56:22.430Z,7.97
2019-03-09T02:57:22.610Z,7.98
2019-03-09T02:58:22.805Z,7.86
2019-03-09T02:59:22.997Z,8.02
2019-03-09T03:00:23.169Z,7.97
2019-03-09T03:01:23.350Z,8.01
2019-03-09T03:02:23.537Z,8.02
2019-03-09T03:03:23.724Z,8.00
2019-03-09T03:04:23.902Z,8.00
2019-03-09T03:05:24.092Z,8.02
2019-03-09T03:06:24.266Z,8.00
2019-03-09T03:07:24.454Z,8.10
2019-03-09T03:08:24.642Z,8.05
2019-03-09T03:09:24.826Z,8.12
2019-03-09T03:10:25.014Z,8.02
2019-03-09T03:11:25.191Z,8.07
2019-03-09T03:12:25.373Z,8.11
2019-03-09T03:13:25.561Z,8.04
2019-03-09T03:14:25.739Z,8.10
2019-03-09T03:15:25.938Z,8.11
2019-03-09T03:16:26.124Z,8.11
2019-03-09T03:17:26.304Z,8.18
2019-03-09T03:18:26.485Z,8.20
2019-03-09T03:19:26.670Z,8.22
2019-03-09T03:20:26.849Z,8.22
2019-03-09T03:21:27.079Z,8.25
2019-03-09T03:22:27.210Z,8.33
2019-03-09T03:23:27.395Z,8.26
2019-03-09T03:24:27.578Z,8.28
2019-03-09T03:25:27.770Z,8.28
2019-03-09T03:26:27.944Z,8.26
2019-03-09T03:27:28.126Z,8.28
2019-03-09T03:28:28.311Z,8.16
2019-03-09T03:29:28.500Z,8.15
2019-03-09T03:30:28.675Z,8.07
2019-03-09T03:31:28.859Z,8.04
2019-03-09T03:32:29.045Z,7.98
2019-03-09T03:33:29.226Z,8.00
2019-03-09T03:34:29.412Z,8.00
2019-03-09T03:35:29.593Z,7.95
2019-03-09T03:36:29.771Z,7.97
2019-03-09T03:37:29.958Z,7.86
2019-03-09T03:38:30.146Z,7.83
2019-03-09T03:39:30.322Z,7.83
2019-03-09T03:40:30.509Z,7.80
2019-03-09T03:41:30.686Z,7.80
2019-03-09T03:42:30.880Z,7.80
2019-03-09T03:43:31.051Z,7.75
2019-03-09T03:44:31.232Z,7.71
2019-03-09T03:45:31.419Z,7.68
2019-03-09T03:46:31.595Z,7.60
2019-03-09T03:47:31.780Z,7.60
2019-03-09T03:48:31.971Z,7.57
2019-03-09T03:49:32.165Z,7.52
2019-03-09T03:50:32.342Z,7.37
2019-03-09T03:51:32.524Z,7.42
2019-03-09T03:52:32.715Z,7.35
2019-03-09T03:53:32.880Z,7.40
2019-03-09T03:54:33.062Z,7.32
2019-03-09T03:55:33.248Z,7.39
2019-03-09T03:56:33.434Z,7.31
2019-03-09T03:57:33.612Z,7.28
2019-03-09T03:58:33.794Z,7.31
2019-03-09T03:59:33.983Z,7.25
2019-03-09T04:00:34.165Z,7.32
2019-03-09T04:01:34.343Z,7.27
2019-03-09T04:02:34.534Z,7.27
2019-03-09T04:03:34.725Z,7.23
2019-03-09T04:04:34.895Z,7.21
2019-03-09T04:05:35.084Z,7.20
2019-03-09T04:06:35.260Z,7.17
2019-03-09T04:07:35.436Z,7.15
2019-03-09T04:08:35.623Z,7.07
2019-03-09T04:09:35.797Z,7.07
2019-03-09T04:10:35.990Z,7.16
2019-03-09T04:11:36.167Z,7.15
2019-03-09T04:12:36.346Z,7.06
2019-03-09T04:13:36.534Z,7.10
2019-03-09T04:14:36.719Z,6.95
2019-03-09T04:15:36.912Z,6.95
2019-03-09T04:16:37.090Z,6.91
2019-03-09T04:17:37.276Z,6.94
2019-03-09T04:18:37.463Z,6.92
2019-03-09T04:19:37.641Z,6.84
2019-03-09T04:20:37.827Z,6.88
2019-03-09T04:21:38.011Z,6.80
2019-03-09T04:22:38.194Z,6.87
2019-03-09T04:23:38.373Z,6.79
2019-03-09T04:24:38.587Z,6.89
2019-03-09T04:25:38.751Z,6.84
2019-03-09T04:26:38.944Z,6.76
2019-03-09T04:27:39.130Z,6.85
2019-03-09T04:28:39.313Z,6.85
2019-03-09T04:29:39.490Z,6.79
2019-03-09T04:30:39.675Z,6.74
2019-03-09T04:31:39.860Z,6.80
2019-03-09T04:32:40.039Z,6.77
2019-03-09T04:33:40.218Z,6.81
2019-03-09T04:34:40.395Z,6.81
2019-03-09T04:35:40.587Z,6.80
2019-03-09T04:36:40.762Z,6.79
2019-03-09T04:37:40.953Z,6.80
2019-03-09T04:38:41.144Z,6.80
2019-03-09T04:39:41.340Z,6.80
2019-03-09T04:40:41.536Z,6.70
2019-03-09T04:41:41.698Z,6.74
2019-03-09T04:42:41.890Z,6.76
2019-03-09T04:43:42.096Z,6.87
2019-03-09T04:44:42.256Z,6.81
2019-03-09T04:45:42.446Z,6.77
2019-03-09T04:46:42.619Z,6.80
2019-03-09T04:47:42.815Z,6.79
2019-03-09T04:48:42.994Z,6.76
2019-03-09T04:49:43.177Z,6.88
2019-03-09T04:50:43.357Z,6.84
2019-03-09T04:51:43.541Z,6.85
2019-03-09T04:52:43.716Z,6.87
2019-03-09T04:53:43.899Z,6.76
2019-03-09T04:54:44.088Z,6.81
2019-03-09T04:55:44.272Z,6.73
2019-03-09T04:56:44.455Z,6.76
2019-03-09T04:57:44.635Z,6.79
2019-03-09T04:58:44.814Z,6.77
2019-03-09T04:59:44.998Z,6.76
2019-03-09T05:00:45.182Z,6.77
2019-03-09T05:01:45.361Z,6.77
2019-03-09T05:02:45.545Z,6.76
2019-03-09T05:03:45.721Z,6.73
2019-03-09T05:04:45.908Z,6.85
2019-03-09T05:05:46.086Z,6.76
2019-03-09T05:06:46.271Z,6.89
2019-03-09T05:07:46.465Z,6.77
2019-03-09T05:08:46.629Z,6.80
2019-03-09T05:09:46.810Z,6.79
2019-03-09T05:10:46.990Z,6.79
2019-03-09T05:11:47.176Z,6.79
2019-03-09T05:12:47.353Z,6.81
2019-03-09T05:13:47.544Z,6.85
2019-03-09T05:14:47.719Z,6.81
2019-03-09T05:15:47.893Z,6.80
2019-03-09T05:16:48.073Z,6.80
2019-03-09T05:17:48.264Z,6.84
2019-03-09T05:18:48.438Z,6.80
2019-03-09T05:19:48.628Z,6.85
2019-03-09T05:20:48.807Z,6.84
2019-03-09T05:21:48.988Z,6.79
2019-03-09T05:22:49.167Z,6.81
2019-03-09T05:23:49.350Z,6.76
2019-03-09T05:24:49.528Z,6.73
2019-03-09T05:25:49.707Z,6.80
2019-03-09T05:26:49.894Z,6.76
2019-03-09T05:27:50.071Z,6.77
2019-03-09T05:28:50.253Z,6.77
2019-03-09T05:29:50.442Z,6.77
2019-03-09T05:30:50.618Z,6.81
2019-03-09T05:31:50.801Z,6.84
2019-03-09T05:32:50.985Z,6.80
2019-03-09T05:33:51.169Z,6.84
2019-03-09T05:34:51.356Z,6.84
2019-03-09T05:35:51.536Z,6.91
2019-03-09T05:36:51.720Z,6.91
2019-03-09T05:37:51.900Z,6.92
2019-03-09T05:38:52.084Z,6.94
2019-03-09T05:39:52.268Z,6.94
2019-03-09T05:40:52.449Z,6.92
2019-03-09T05:41:52.629Z,6.95
2019-03-09T05:42:52.811Z,6.91
2019-03-09T05:43:52.995Z,6.98
2019-03-09T05:44:53.179Z,6.97
2019-03-09T05:45:53.356Z,7.02
2019-03-09T05:46:53.540Z,6.98
2019-03-09T05:47:53.716Z,7.05
2019-03-09T05:48:53.894Z,7.12
2019-03-09T05:49:54.078Z,7.13
2019-03-09T05:50:54.268Z,7.07
2019-03-09T05:51:54.451Z,6.98
2019-03-09T05:52:55.425Z,7.06
2019-03-09T05:53:54.887Z,7.10
2019-03-09T05:54:55.068Z,7.09
2019-03-09T05:55:55.254Z,7.17
2019-03-09T05:56:55.434Z,7.09
2019-03-09T05:57:55.619Z,7.09
2019-03-09T05:58:55.794Z,7.15
2019-03-09T05:59:55.976Z,7.13
2019-03-09T06:00:56.158Z,7.16
2019-03-09T06:01:56.335Z,7.24
2019-03-09T06:02:56.518Z,7.17
2019-03-09T06:03:56.704Z,7.21
2019-03-09T06:04:56.883Z,7.23
2019-03-09T06:05:57.114Z,7.20
2019-03-09T06:06:57.252Z,7.27
2019-03-09T06:07:57.436Z,7.31
2019-03-09T06:08:57.613Z,7.31
2019-03-09T06:09:57.793Z,7.39
2019-03-09T06:10:57.978Z,7.32
2019-03-09T06:11:58.154Z,7.37
2019-03-09T06:12:58.342Z,7.32
2019-03-09T06:13:58.524Z,7.42
2019-03-09T06:14:58.714Z,7.46
2019-03-09T06:15:58.886Z,7.48
2019-03-09T06:16:59.076Z,7.57
2019-03-09T06:17:59.254Z,7.40
2019-03-09T06:18:59.433Z,7.49
2019-03-09T06:19:59.629Z,7.58
2019-03-09T06:20:59.800Z,7.50
2019-03-09T06:21:59.983Z,7.55
2019-03-09T06:23:00.164Z,7.58
2019-03-09T06:24:00.346Z,7.53
2019-03-09T06:25:00.529Z,7.61
2019-03-09T06:26:00.716Z,7.53
2019-03-09T06:27:00.913Z,7.60
2019-03-09T06:28:01.103Z,7.57
2019-03-09T06:29:01.295Z,7.64
2019-03-09T06:30:01.475Z,7.67
2019-03-09T06:31:01.660Z,7.58
2019-03-09T06:32:01.841Z,7.60
2019-03-09T06:33:02.019Z,7.69
2019-03-09T06:34:02.210Z,7.72
2019-03-09T06:35:02.390Z,7.77
2019-03-09T06:36:02.571Z,7.72
2019-03-09T06:37:02.754Z,7.86
2019-03-09T06:38:02.935Z,7.79
2019-03-09T06:39:03.124Z,7.79
2019-03-09T06:40:03.299Z,7.83
2019-03-09T06:41:03.482Z,7.80
2019-03-09T06:42:03.664Z,7.87
2019-03-09T06:43:03.855Z,7.86
2019-03-09T06:44:04.036Z,7.87
2019-03-09T06:45:04.214Z,7.89
2019-03-09T06:46:04.394Z,7.85
2019-03-09T06:47:04.570Z,7.93
2019-03-09T06:48:04.751Z,7.98
2019-03-09T06:49:04.939Z,8.02
2019-03-09T06:50:05.118Z,8.02
2019-03-09T06:51:05.300Z,8.00
2019-03-09T06:52:05.484Z,8.02
2019-03-09T06:53:05.661Z,8.11
2019-03-09T06:54:05.840Z,8.15
2019-03-09T06:55:06.037Z,8.19
2019-03-09T06:56:06.199Z,8.22
2019-03-09T06:57:13.565Z,8.23
2019-03-09T06:58:06.568Z,8.18
2019-03-09T06:59:06.749Z,8.23
2019-03-09T07:00:06.928Z,8.11
2019-03-09T07:01:07.108Z,8.12
2019-03-09T07:02:07.294Z,8.16
2019-03-09T07:03:07.483Z,8.18
2019-03-09T07:04:07.665Z,8.18
2019-03-09T07:05:07.848Z,8.12
2019-03-09T07:06:08.026Z,8.11
2019-03-09T07:07:08.207Z,8.19
2019-03-09T07:08:08.398Z,8.26
2019-03-09T07:09:08.579Z,8.23
2019-03-09T07:10:08.775Z,8.29
2019-03-09T07:11:08.957Z,8.29
2019-03-09T07:12:09.139Z,8.33
2019-03-09T07:13:09.319Z,8.33
2019-03-09T07:14:09.501Z,8.36
2019-03-09T07:15:09.707Z,8.33
2019-03-09T07:16:09.904Z,8.26
2019-03-09T07:17:10.075Z,8.30
2019-03-09T07:18:10.246Z,8.30
2019-03-09T07:19:10.424Z,8.40
2019-03-09T07:20:12.913Z,8.44
2019-03-09T07:21:10.801Z,8.47
2019-03-09T07:22:10.997Z,8.43
2019-03-09T07:23:11.183Z,8.48
2019-03-09T07:24:11.363Z,8.41
2019-03-09T07:25:11.545Z,8.45
2019-03-09T07:26:11.725Z,8.55
2019-03-09T07:27:11.912Z,8.58
2019-03-09T07:28:12.099Z,8.61
2019-03-09T07:29:12.289Z,8.58
2019-03-09T07:30:12.475Z,8.61
2019-03-09T07:31:12.660Z,8.68
2019-03-09T07:32:12.849Z,8.74
2019-03-09T07:33:13.028Z,8.71
2019-03-09T07:34:13.213Z,8.83
2019-03-09T07:35:13.393Z,8.91
2019-03-09T07:36:13.577Z,8.99
2019-03-09T07:37:13.766Z,8.99
2019-03-09T07:38:13.948Z,9.01
2019-03-09T07:39:14.136Z,9.15
2019-03-09T07:40:14.322Z,9.23
2019-03-09T07:41:14.504Z,9.05
2019-03-09T07:42:14.687Z,9.02
2019-03-09T07:43:14.881Z,9.08
2019-03-09T07:44:15.069Z,9.15
2019-03-09T07:45:15.250Z,9.10
2019-03-09T07:46:15.433Z,9.18
2019-03-09T07:47:15.618Z,9.29
2019-03-09T07:48:15.803Z,9.26
2019-03-09T07:49:15.991Z,9.36
2019-03-09T07:50:16.186Z,9.32
2019-03-09T07:51:16.366Z,9.40
2019-03-09T07:52:16.556Z,9.36
2019-03-09T07:53:16.738Z,9.50
2019-03-09T07:54:16.926Z,9.51
2019-03-09T07:55:17.112Z,9.71
2019-03-09T07:56:17.296Z,9.79
2019-03-09T07:57:17.482Z,9.84
2019-03-09T07:58:17.675Z,9.83
2019-03-09T07:59:17.858Z,9.97
2019-03-09T08:00:18.042Z,10.27
2019-03-09T08:01:18.234Z,10.15
2019-03-09T08:02:18.427Z,9.91
2019-03-09T08:03:18.600Z,9.84
2019-03-09T08:04:18.794Z,9.72
2019-03-09T08:05:18.980Z,9.68
2019-03-09T08:06:19.165Z,9.86
2019-03-09T08:07:19.361Z,9.71
2019-03-09T08:08:19.549Z,9.57
2019-03-09T08:09:19.739Z,9.75
2019-03-09T08:10:19.912Z,9.74
2019-03-09T08:11:20.106Z,9.65
2019-03-09T08:12:20.295Z,9.86
2019-03-09T08:13:20.475Z,9.84
2019-03-09T08:14:20.662Z,9.91
2019-03-09T08:15:20.849Z,10.02
2019-03-09T08:16:21.037Z,9.97
2019-03-09T08:17:21.214Z,9.89
2019-03-09T08:18:21.393Z,9.83
2019-03-09T08:19:21.580Z,9.65
2019-03-09T08:20:21.775Z,9.79
2019-03-09T08:21:21.950Z,9.76
2019-03-09T08:22:22.144Z,10.01
2019-03-09T08:23:22.339Z,10.02
2019-03-09T08:24:22.572Z,10.04
2019-03-09T08:25:22.709Z,9.99
2019-03-09T08:26:22.906Z,10.01
2019-03-09T08:27:23.082Z,10.04
2019-03-09T08:28:23.273Z,9.99
2019-03-09T08:29:23.466Z,10.01
2019-03-09T08:30:23.664Z,10.07
2019-03-09T08:31:23.826Z,10.08
2019-03-09T08:32:24.022Z,9.99
2019-03-09T08:33:24.222Z,9.94
2019-03-09T08:34:24.397Z,10.04
2019-03-09T08:35:24.583Z,10.01
2019-03-09T08:36:24.772Z,9.99
2019-03-09T08:37:24.957Z,10.15
2019-03-09T08:38:25.153Z,10.18
2019-03-09T08:39:25.382Z,10.26
2019-03-09T08:40:25.532Z,10.36
2019-03-09T08:41:25.701Z,10.38
2019-03-09T08:42:25.899Z,10.40
2019-03-09T08:43:26.074Z,10.47
2019-03-09T08:44:26.259Z,10.44
2019-03-09T08:45:26.448Z,10.48
2019-03-09T08:46:26.647Z,10.56
2019-03-09T08:47:26.833Z,10.63
2019-03-09T08:48:27.030Z,10.61
2019-03-09T08:49:27.205Z,10.73
2019-03-09T08:50:27.389Z,10.89
2019-03-09T08:51:27.592Z,10.82
2019-03-09T08:52:27.776Z,11.03
2019-03-09T08:53:28.052Z,11.03
2019-03-09T08:54:28.147Z,11.09
2019-03-09T08:55:28.367Z,11.21
2019-03-09T08:56:28.539Z,11.27
2019-03-09T08:57:28.721Z,11.29
2019-03-09T08:58:28.907Z,11.14
2019-03-09T08:59:29.109Z,11.24
2019-03-09T09:00:30.463Z,11.22
2019-03-09T09:01:29.480Z,11.14
2019-03-09T09:02:29.661Z,11.22
2019-03-09T09:03:29.853Z,11.03
2019-03-09T09:04:30.074Z,10.89
2019-03-09T09:05:30.250Z,11.11
2019-03-09T09:06:30.452Z,11.09
2019-03-09T09:07:30.646Z,11.24
2019-03-09T09:08:30.842Z,11.29
2019-03-09T09:09:31.018Z,11.43
2019-03-09T09:10:31.291Z,11.29
2019-03-09T09:11:31.405Z,11.35
2019-03-09T09:12:31.577Z,11.21
2019-03-09T09:13:31.759Z,11.25
2019-03-09T09:14:31.948Z,11.18
2019-03-09T09:15:32.136Z,11.21
2019-03-09T09:16:32.321Z,11.17
2019-03-09T09:17:32.510Z,11.07
2019-03-09T09:18:32.695Z,10.97
2019-03-09T09:19:32.888Z,10.94
2019-03-09T09:20:33.070Z,10.84
2019-03-09T09:21:33.258Z,10.79
2019-03-09T09:22:33.450Z,10.78
2019-03-09T09:23:33.631Z,10.70
2019-03-09T09:24:33.818Z,10.74
2019-03-09T09:25:34.006Z,10.88
2019-03-09T09:26:34.203Z,10.85
2019-03-09T09:27:34.383Z,10.94
2019-03-09T09:28:34.566Z,10.91
2019-03-09T09:29:34.772Z,11.10
2019-03-09T09:30:34.958Z,11.07
2019-03-09T09:31:35.144Z,11.09
2019-03-09T09:32:35.328Z,11.22
2019-03-09T09:33:35.509Z,11.25
2019-03-09T09:34:35.708Z,11.24
2019-03-09T09:35:35.883Z,11.40
2019-03-09T09:36:36.075Z,11.39
2019-03-09T09:37:36.263Z,11.40
2019-03-09T09:38:36.449Z,11.40
2019-03-09T09:39:36.632Z,11.33
2019-03-09T09:40:36.825Z,11.37
2019-03-09T09:41:37.029Z,11.46
2019-03-09T09:42:37.210Z,11.40
2019-03-09T09:43:37.412Z,11.22
2019-03-09T09:44:37.586Z,11.22
2019-03-09T09:45:37.771Z,11.29
2019-03-09T09:46:37.969Z,11.29
2019-03-09T09:47:38.153Z,11.27
2019-03-09T09:48:38.338Z,11.28
2019-03-09T09:49:38.519Z,11.28
2019-03-09T09:50:38.708Z,11.28
2019-03-09T09:51:38.909Z,11.27
2019-03-09T09:52:39.093Z,11.07
2019-03-09T09:53:39.279Z,11.17
2019-03-09T09:54:39.458Z,11.06
2019-03-09T09:55:39.667Z,11.11
2019-03-09T09:56:39.854Z,11.02
2019-03-09T09:57:40.047Z,11.02
2019-03-09T09:58:40.232Z,10.97
2019-03-09T09:59:40.418Z,10.99
2019-03-09T10:00:40.656Z,10.94
2019-03-09T10:01:40.794Z,11.00
2019-03-09T10:02:40.975Z,10.99
2019-03-09T10:03:41.167Z,11.00
2019-03-09T10:04:41.352Z,11.03
2019-03-09T10:05:41.542Z,11.07
2019-03-09T10:06:41.726Z,11.21
2019-03-09T10:07:41.918Z,11.18
2019-03-09T10:08:42.106Z,11.25
2019-03-09T10:09:42.291Z,11.37
2019-03-09T10:10:42.475Z,11.22
2019-03-09T10:11:42.661Z,11.35
2019-03-09T10:12:42.848Z,11.46
2019-03-09T10:13:43.038Z,11.35
2019-03-09T10:14:43.224Z,11.47
2019-03-09T10:15:43.408Z,11.47
2019-03-09T10:16:43.592Z,11.36
2019-03-09T10:17:43.780Z,11.27
2019-03-09T10:18:43.964Z,11.35
2019-03-09T10:19:44.151Z,11.18
2019-03-09T10:20:45.097Z,11.25
2019-03-09T10:21:44.526Z,11.25
2019-03-09T10:22:44.702Z,11.21
2019-03-09T10:23:44.900Z,11.32
2019-03-09T10:24:45.089Z,11.28
2019-03-09T10:25:45.289Z,11.27
2019-03-09T10:26:45.458Z,11.28
2019-03-09T10:27:45.644Z,11.44
2019-03-09T10:28:45.836Z,11.46
2019-03-09T10:29:46.012Z,11.39
2019-03-09T10:30:46.202Z,11.32
2019-03-09T10:31:46.394Z,11.27
2019-03-09T10:32:46.579Z,11.37
2019-03-09T10:33:46.767Z,11.32
2019-03-09T10:34:46.957Z,11.29
2019-03-09T10:35:47.142Z,11.33
2019-03-09T10:36:47.328Z,11.46
2019-03-09T10:37:47.515Z,11.54
2019-03-09T10:38:47.698Z,11.67
2019-03-09T10:39:47.892Z,11.83
2019-03-09T10:40:48.082Z,12.02
2019-03-09T10:41:48.268Z,12.09
2019-03-09T10:42:48.448Z,12.01
2019-03-09T10:43:48.638Z,11.91
2019-03-09T10:44:49.826Z,11.91
2019-03-09T10:45:49.013Z,11.82
2019-03-09T10:46:49.223Z,11.82
2019-03-09T10:47:49.410Z,11.78
2019-03-09T10:48:49.598Z,11.67
2019-03-09T10:49:49.782Z,11.70
2019-03-09T10:50:49.983Z,11.72
2019-03-09T10:51:50.167Z,11.70
2019-03-09T10:52:50.356Z,11.64
2019-03-09T10:53:50.547Z,11.58
2019-03-09T10:54:50.738Z,11.52
2019-03-09T10:55:50.928Z,11.55
2019-03-09T10:56:51.114Z,11.52
2019-03-09T10:57:51.295Z,11.58
2019-03-09T10:58:51.482Z,11.67
2019-03-09T10:59:51.668Z,11.64
2019-03-09T11:00:51.854Z,11.67
2019-03-09T11:01:52.047Z,11.70
2019-03-09T11:02:52.240Z,11.70
2019-03-09T11:03:52.432Z,11.75
2019-03-09T11:04:52.617Z,11.85
2019-03-09T11:05:52.801Z,11.85
2019-03-09T11:06:52.989Z,11.72
2019-03-09T11:07:53.245Z,11.72
2019-03-09T11:08:53.423Z,11.79
2019-03-09T11:09:53.614Z,11.69
2019-03-09T11:10:53.836Z,11.64
2019-03-09T11:11:54.024Z,11.76
2019-03-09T11:12:54.212Z,11.78
2019-03-09T11:13:54.403Z,11.75
2019-03-09T11:14:54.599Z,11.82
2019-03-09T11:15:54.781Z,11.82
2019-03-09T11:16:54.961Z,11.82
2019-03-09T11:17:55.161Z,11.94
2019-03-09T11:18:55.346Z,11.80
2019-03-09T11:19:55.536Z,12.01
2019-03-09T11:20:55.719Z,11.98
2019-03-09T11:21:55.899Z,11.90
2019-03-09T11:22:56.093Z,11.83
2019-03-09T11:23:56.284Z,11.95
2019-03-09T11:25:03.455Z,11.96
2019-03-09T11:25:56.659Z,11.94
2019-03-09T11:26:56.845Z,11.79
2019-03-09T11:27:57.032Z,11.94
2019-03-09T11:28:57.230Z,11.95
2019-03-09T11:29:57.418Z,12.02
2019-03-09T11:30:57.601Z,12.01
2019-03-09T11:31:57.868Z,12.04
2019-03-09T11:32:57.995Z,12.09
2019-03-09T11:33:58.178Z,12.14
2019-03-09T11:34:58.370Z,12.14
2019-03-09T11:35:58.568Z,12.29
2019-03-09T11:36:58.760Z,12.47
2019-03-09T11:37:58.947Z,12.67
2019-03-09T11:38:59.129Z,12.65
2019-03-09T11:39:59.314Z,12.53
2019-03-09T11:41:00.827Z,12.56
2019-03-09T11:41:59.704Z,12.57
2019-03-09T11:42:59.892Z,12.45
2019-03-09T11:44:00.073Z,12.42
2019-03-09T11:45:00.390Z,12.45
2019-03-09T11:46:00.453Z,12.50
2019-03-09T11:47:00.646Z,12.54
2019-03-09T11:48:00.839Z,12.65
2019-03-09T11:49:01.027Z,12.56
2019-03-09T11:50:01.212Z,12.60
2019-03-09T11:51:01.400Z,12.46
2019-03-09T11:52:01.599Z,12.57
2019-03-09T11:53:01.800Z,12.64
2019-03-09T11:54:01.994Z,12.74
2019-03-09T11:55:02.176Z,12.77
2019-03-09T11:56:02.358Z,12.83
2019-03-09T11:57:02.556Z,12.71
2019-03-09T11:58:02.740Z,12.86
2019-03-09T11:59:02.934Z,12.77
2019-03-09T12:00:03.115Z,12.83
2019-03-09T12:01:03.317Z,12.75
2019-03-09T12:02:03.501Z,12.72
2019-03-09T12:03:03.689Z,12.87
2019-03-09T12:04:03.871Z,13.08
2019-03-09T12:05:04.067Z,13.36
2019-03-09T12:06:04.264Z,13.36
2019-03-09T12:07:04.461Z,13.39
2019-03-09T12:08:04.647Z,13.51
2019-03-09T12:09:04.841Z,13.57
2019-03-09T12:10:05.072Z,13.79
2019-03-09T12:11:05.225Z,14.12
2019-03-09T12:12:05.416Z,14.25
2019-03-09T12:13:05.607Z,14.28
2019-03-09T12:14:05.792Z,14.24
2019-03-09T12:15:05.982Z,14.58
2019-03-09T12:16:06.174Z,14.64
2019-03-09T12:17:12.410Z,14.52
2019-03-09T12:18:06.551Z,14.65
2019-03-09T12:19:06.737Z,14.57
2019-03-09T12:20:06.931Z,14.69
2019-03-09T12:21:07.127Z,14.86
2019-03-09T12:22:07.327Z,14.92
2019-03-09T12:23:07.519Z,14.70
2019-03-09T12:24:16.162Z,14.45
2019-03-09T12:25:07.905Z,14.62
2019-03-09T12:26:08.091Z,14.33
2019-03-09T12:27:08.275Z,14.35
2019-03-09T12:28:08.470Z,14.12
2019-03-09T12:29:08.657Z,13.92
2019-03-09T12:30:08.858Z,13.71
2019-03-09T12:31:09.047Z,13.62
2019-03-09T12:32:09.233Z,13.64
2019-03-09T12:33:09.419Z,13.71
2019-03-09T12:34:09.610Z,13.55
2019-03-09T12:35:09.802Z,13.63
2019-03-09T12:36:09.986Z,13.52
2019-03-09T12:37:10.179Z,13.49
2019-03-09T12:38:10.375Z,13.51
2019-03-09T12:39:10.567Z,13.57
2019-03-09T12:40:10.759Z,13.41
2019-03-09T12:41:10.945Z,13.32
2019-03-09T12:42:11.137Z,13.52
2019-03-09T12:43:11.323Z,13.44
2019-03-09T12:44:11.509Z,13.54
2019-03-09T12:45:11.706Z,13.73
2019-03-09T12:46:11.903Z,13.67
2019-03-09T12:47:12.079Z,13.54
2019-03-09T12:48:12.271Z,13.63
2019-03-09T12:49:12.469Z,13.89
2019-03-09T12:50:12.661Z,13.73
2019-03-09T12:51:12.849Z,13.85
2019-03-09T12:52:13.039Z,13.77
2019-03-09T12:53:14.230Z,13.91
2019-03-09T12:54:13.426Z,13.84
2019-03-09T12:55:14.520Z,13.89
2019-03-09T12:56:13.799Z,13.96
2019-03-09T12:57:13.981Z,13.87
2019-03-09T12:58:14.175Z,13.82
2019-03-09T12:59:14.366Z,13.82
2019-03-09T13:00:14.565Z,13.92
2019-03-09T13:01:14.742Z,13.67
2019-03-09T13:02:14.933Z,13.71
2019-03-09T13:03:15.126Z,14.18
2019-03-09T13:04:15.314Z,14.33
2019-03-09T13:05:15.504Z,14.28
2019-03-09T13:06:15.697Z,14.24
2019-03-09T13:07:15.881Z,14.39
2019-03-09T13:08:16.080Z,14.47
2019-03-09T13:09:16.275Z,14.45
2019-03-09T13:10:16.475Z,14.27
2019-03-09T13:11:16.664Z,14.17